createdAt,value
2018-07-08T00:03:43.027Z,16.90
2018-07-08T00:08:46.666Z,16.70
2018-07-08T00:18:52.693Z,16.50
2018-07-08T00:23:55.717Z,16.30
2018-07-08T00:28:58.775Z,16.20
2018-07-08T00:39:15.047Z,16.00
2018-07-08T00:44:18.738Z,15.90
2018-07-08T00:49:21.963Z,15.80
2018-07-08T00:54:25.053Z,15.60
2018-07-08T00:59:28.148Z,15.60
2018-07-08T01:04:31.181Z,15.50
2018-07-08T01:09:34.224Z,15.40
2018-07-08T01:14:37.313Z,15.30
2018-07-08T01:19:40.486Z,15.10
2018-07-08T01:24:43.537Z,15.00
2018-07-08T01:29:46.571Z,14.90
2018-07-08T01:34:49.619Z,14.90
2018-07-08T01:39:52.676Z,14.70
2018-07-08T01:44:55.734Z,14.70
2018-07-08T01:49:58.789Z,14.60
2018-07-08T01:55:01.849Z,14.50
2018-07-08T02:00:05.757Z,14.50
2018-07-08T02:05:09.205Z,14.30
2018-07-08T02:10:12.409Z,14.30
2018-07-08T02:20:18.659Z,14.10
2018-07-08T02:25:22.180Z,14.00
2018-07-08T02:30:34.553Z,13.90
2018-07-08T02:35:38.898Z,13.80
2018-07-08T02:40:42.946Z,13.70
2018-07-08T02:45:46.029Z,13.70
2018-07-08T02:50:49.389Z,13.60
2018-07-08T02:55:52.681Z,13.50
2018-07-08T03:05:59.007Z,13.30
2018-07-08T03:11:02.147Z,13.20
2018-07-08T03:16:05.883Z,13.10
2018-07-08T03:21:09.787Z,12.80
2018-07-08T03:26:12.833Z,12.70
2018-07-08T03:31:16.097Z,12.50
2018-07-08T03:36:19.145Z,12.40
2018-07-08T03:41:22.185Z,12.20
2018-07-08T03:46:25.242Z,12.10
2018-07-08T03:51:37.965Z,12.00
2018-07-08T03:56:41.165Z,12.00
2018-07-08T04:01:44.203Z,11.90
2018-07-08T04:06:47.249Z,11.70
2018-07-08T04:11:50.288Z,11.60
2018-07-08T04:17:06.729Z,11.60
2018-07-08T04:27:34.346Z,11.50
2018-07-08T04:32:37.445Z,11.70
2018-07-08T04:37:40.777Z,12.00
2018-07-08T04:42:43.813Z,12.30
2018-07-08T04:47:46.866Z,12.50
2018-07-08T04:52:50.481Z,12.70
2018-07-08T04:57:53.504Z,12.90
2018-07-08T05:02:56.560Z,13.30
2018-07-08T05:07:59.616Z,13.60
2018-07-08T05:13:02.671Z,13.90
2018-07-08T05:18:05.958Z,14.30
2018-07-08T05:23:33.578Z,14.80
2018-07-08T05:28:36.716Z,15.30
2018-07-08T05:33:39.729Z,15.80
2018-07-08T05:38:42.879Z,16.10
2018-07-08T05:43:46.703Z,16.40
2018-07-08T05:48:49.761Z,16.70
2018-07-08T05:53:52.825Z,16.90
2018-07-08T05:58:55.897Z,17.10
2018-07-08T06:04:14.604Z,17.40
2018-07-08T06:09:17.781Z,17.60
2018-07-08T06:14:20.837Z,17.90
2018-07-08T06:19:23.897Z,18.10
2018-07-08T06:24:28.101Z,18.10
2018-07-08T06:29:31.178Z,18.30
2018-07-08T06:34:34.577Z,18.30
2018-07-08T06:39:37.621Z,18.40
2018-07-08T06:44:40.673Z,18.50
2018-07-08T06:49:45.769Z,18.50
2018-07-08T06:54:48.825Z,18.50
2018-07-08T06:59:51.877Z,18.70
2018-07-08T07:04:54.933Z,19.00
2018-07-08T07:09:58.149Z,19.30
2018-07-08T07:15:01.205Z,19.40
2018-07-08T07:20:04.282Z,19.50
2018-07-08T07:25:08.016Z,19.70
2018-07-08T07:30:11.053Z,19.60
2018-07-08T07:35:14.105Z,19.80
2018-07-08T07:40:17.209Z,19.90
2018-07-08T07:45:20.253Z,20.00
2018-07-08T07:50:23.301Z,20.10
2018-07-08T07:55:26.341Z,20.10
2018-07-08T08:00:29.410Z,20.10
2018-07-08T08:05:32.449Z,20.20
2018-07-08T08:10:35.487Z,20.30
2018-07-08T08:15:38.528Z,20.40
2018-07-08T08:20:41.616Z,20.50
2018-07-08T08:25:44.677Z,20.60
2018-07-08T08:30:47.721Z,20.80
2018-07-08T08:35:50.762Z,20.90
2018-07-08T08:40:53.804Z,21.20
2018-07-08T08:45:56.898Z,21.30
2018-07-08T08:50:59.897Z,21.50
2018-07-08T08:56:09.833Z,21.50
2018-07-08T09:01:12.885Z,21.60
2018-07-08T09:06:15.936Z,21.70
2018-07-08T09:11:18.989Z,21.80
2018-07-08T09:16:22.092Z,21.90
2018-07-08T09:21:25.136Z,22.00
2018-07-08T09:26:28.181Z,22.10
2018-07-08T09:31:31.233Z,22.20
2018-07-08T09:36:34.553Z,22.30
2018-07-08T09:41:37.992Z,22.40
2018-07-08T09:46:41.921Z,22.40
2018-07-08T09:51:45.441Z,22.50
2018-07-08T09:56:48.509Z,22.70
2018-07-08T10:01:51.565Z,22.80
2018-07-08T10:06:54.923Z,22.90
2018-07-08T10:11:58.039Z,23.00
2018-07-08T10:17:02.234Z,23.10
2018-07-08T10:22:05.389Z,23.20
2018-07-08T10:27:22.618Z,23.30
2018-07-08T10:32:25.700Z,23.30
2018-07-08T10:37:28.769Z,23.30
2018-07-08T10:42:31.849Z,23.40
2018-07-08T10:47:35.067Z,23.40
2018-07-08T10:52:38.129Z,23.40
2018-07-08T10:57:41.336Z,23.40
2018-07-08T11:02:44.425Z,23.40
2018-07-08T11:07:47.471Z,23.40
2018-07-08T11:12:50.569Z,23.40
2018-07-08T11:17:54.705Z,23.50
2018-07-08T11:22:57.777Z,23.60
2018-07-08T11:28:00.834Z,23.70
2018-07-08T11:33:03.977Z,23.80
2018-07-08T11:38:07.421Z,23.90
2018-07-08T11:43:10.514Z,23.90
2018-07-08T11:48:13.566Z,23.90
2018-07-08T11:53:17.509Z,23.90
2018-07-08T11:58:20.592Z,24.00
2018-07-08T12:03:23.761Z,24.10
2018-07-08T12:08:26.852Z,24.00
2018-07-08T12:13:29.945Z,24.10
2018-07-08T12:18:33.013Z,24.10
2018-07-08T12:23:39.018Z,24.20
2018-07-08T12:28:42.061Z,24.30
2018-07-08T12:33:45.127Z,24.30
2018-07-08T12:38:48.269Z,24.30
2018-07-08T12:43:51.321Z,24.20
2018-07-08T12:48:54.445Z,24.30
2018-07-08T12:53:57.497Z,24.30
2018-07-08T12:59:01.612Z,24.30
2018-07-08T13:04:04.687Z,24.50
2018-07-08T13:09:07.728Z,24.60
2018-07-08T13:14:11.813Z,24.80
2018-07-08T13:19:14.872Z,24.80
2018-07-08T13:24:17.933Z,24.80
2018-07-08T13:29:22.769Z,24.80
2018-07-08T13:34:27.296Z,24.90
2018-07-08T13:39:30.377Z,24.80
2018-07-08T13:44:33.545Z,24.80
2018-07-08T13:49:36.607Z,24.80
2018-07-08T13:54:39.764Z,24.90
2018-07-08T13:59:42.823Z,24.90
2018-07-08T14:04:46.069Z,25.00
2018-07-08T14:09:49.144Z,25.10
2018-07-08T14:14:52.189Z,25.10
2018-07-08T14:19:55.257Z,25.10
2018-07-08T14:24:58.302Z,25.20
2018-07-08T14:30:01.376Z,25.20
2018-07-08T14:35:04.429Z,25.20
2018-07-08T14:40:07.485Z,25.20
2018-07-08T14:45:10.538Z,25.30
2018-07-08T14:50:13.589Z,25.40
2018-07-08T14:55:16.629Z,25.60
2018-07-08T15:00:19.692Z,25.70
2018-07-08T15:05:22.747Z,25.90
2018-07-08T15:10:25.789Z,26.00
2018-07-08T15:15:28.918Z,26.00
2018-07-08T15:20:31.897Z,25.90
2018-07-08T15:25:35.140Z,25.90
2018-07-08T15:30:38.297Z,26.10
2018-07-08T15:35:41.858Z,26.20
2018-07-08T15:40:44.905Z,26.30
2018-07-08T15:45:48.969Z,26.40
2018-07-08T15:50:52.019Z,26.40
2018-07-08T15:55:55.107Z,26.30
2018-07-08T16:00:58.205Z,26.30
2018-07-08T16:06:02.351Z,26.30
2018-07-08T16:11:05.574Z,26.30
2018-07-08T16:16:08.628Z,26.30
2018-07-08T16:21:11.701Z,26.20
2018-07-08T16:26:14.761Z,26.30
2018-07-08T16:31:18.025Z,26.30
2018-07-08T16:36:21.326Z,26.30
2018-07-08T16:41:24.572Z,26.40
2018-07-08T16:46:27.654Z,26.40
2018-07-08T16:51:30.693Z,26.40
2018-07-08T16:56:33.766Z,26.40
2018-07-08T17:01:36.813Z,26.40
2018-07-08T17:06:39.873Z,26.30
2018-07-08T17:11:42.928Z,26.20
2018-07-08T17:16:45.994Z,26.10
2018-07-08T17:21:49.070Z,26.00
2018-07-08T17:26:52.421Z,25.90
2018-07-08T17:31:55.817Z,25.90
2018-07-08T17:36:58.866Z,26.00
2018-07-08T17:42:01.941Z,26.10
2018-07-08T17:47:06.075Z,26.00
2018-07-08T17:52:09.239Z,25.90
2018-07-08T17:57:12.296Z,25.80
2018-07-08T18:02:15.349Z,25.70
2018-07-08T18:07:18.550Z,25.60
2018-07-08T18:12:21.605Z,25.40
2018-07-08T18:17:24.790Z,25.30
2018-07-08T18:22:29.572Z,25.20
2018-07-08T18:27:32.633Z,25.20
2018-07-08T18:32:35.801Z,25.10
2018-07-08T18:37:38.857Z,25.00
2018-07-08T18:42:41.893Z,24.80
2018-07-08T18:47:45.015Z,24.70
2018-07-08T18:52:48.057Z,24.50
2018-07-08T18:57:51.210Z,24.30
2018-07-08T19:02:54.258Z,24.10
2018-07-08T19:07:57.312Z,24.00
2018-07-08T19:13:00.365Z,23.80
2018-07-08T19:18:03.474Z,23.60
2018-07-08T19:23:06.488Z,23.50
2018-07-08T19:28:09.536Z,23.30
2018-07-08T19:33:12.605Z,23.20
2018-07-08T19:38:15.709Z,23.00
2018-07-08T19:43:18.819Z,22.80
2018-07-08T19:48:21.864Z,22.70
2018-07-08T19:53:24.908Z,22.50
2018-07-08T19:58:28.021Z,22.40
2018-07-08T20:03:32.149Z,22.30
2018-07-08T20:08:35.249Z,22.10
2018-07-08T20:13:38.305Z,22.10
2018-07-08T20:18:41.374Z,22.00
2018-07-08T20:23:44.431Z,21.90
2018-07-08T20:28:47.501Z,21.70
2018-07-08T20:33:50.545Z,21.50
2018-07-08T20:38:53.606Z,21.40
2018-07-08T20:43:56.662Z,21.30
2018-07-08T20:48:59.717Z,21.20
2018-07-08T20:54:02.756Z,20.80
2018-07-08T20:59:05.981Z,20.90
2018-07-08T21:04:09.054Z,20.80
2018-07-08T21:09:12.109Z,20.60
2018-07-08T21:14:15.153Z,20.50
2018-07-08T21:19:18.185Z,20.40
2018-07-08T21:24:21.237Z,20.40
2018-07-08T21:29:24.269Z,20.20
2018-07-08T21:34:27.317Z,20.10
2018-07-08T21:39:30.410Z,20.00
2018-07-08T21:44:33.465Z,19.90
2018-07-08T21:49:36.537Z,19.80
2018-07-08T21:54:39.578Z,19.60
2018-07-08T21:59:42.620Z,19.50
2018-07-08T22:04:45.721Z,19.40
2018-07-08T22:09:48.765Z,19.40
2018-07-08T22:14:51.809Z,19.30
2018-07-08T22:19:54.857Z,19.20
2018-07-08T22:24:57.901Z,19.10
2018-07-08T22:30:00.957Z,19.10
2018-07-08T22:35:04.002Z,19.00
2018-07-08T22:40:07.332Z,18.90
2018-07-08T22:45:10.389Z,18.80
2018-07-08T22:50:13.420Z,18.70
2018-07-08T22:55:16.461Z,18.60
2018-07-08T23:00:30.884Z,18.50
2018-07-08T23:05:33.928Z,18.30
2018-07-08T23:10:36.978Z,18.20
2018-07-08T23:15:40.028Z,18.10
2018-07-08T23:20:43.070Z,18.00
2018-07-08T23:25:46.159Z,17.90
2018-07-08T23:30:49.195Z,17.80
2018-07-08T23:35:52.241Z,17.70
2018-07-08T23:40:55.277Z,17.60
2018-07-08T23:45:58.453Z,17.60
2018-07-08T23:51:01.504Z,17.50
2018-07-08T23:56:04.558Z,17.40
